Time;durP1;ratioP1;P1;durP2;ratioP2;P2;SDS_P1;SDS_P2;PMS_P1;PMS_P2;Temp;Humidity;BMP_temperature;BMP_pressure;BME280_temperature;BME280_humidity;BME280_pressure;Samples;Min_cycle;Max_cycle;Signal;HPM_P1;HPM_P2
2023/04/21 00:00:53;;;;;;;34.80;24.23;;;;;;;;;;5050851;28;20049;-60
2023/04/21 00:03:20;;;;;;;29.70;22.00;;;;;;;;;;5052343;28;20063;-60
2023/04/21 00:05:47;;;;;;;32.90;23.30;;;;;;;;;;5052739;28;20037;-60
2023/04/21 00:08:13;;;;;;;33.00;23.87;;;;;;;;;;5072328;28;20086;-60
2023/04/21 00:10:39;;;;;;;31.53;23.33;;;;;;;;;;5072065;28;20045;-60
2023/04/21 00:13:05;;;;;;;31.33;23.27;;;;;;;;;;5052512;28;20049;-60
2023/04/21 00:15:31;;;;;;;31.10;22.67;;;;;;;;;;5052907;28;20095;-60
2023/04/21 00:17:57;;;;;;;37.03;23.87;;;;;;;;;;5058326;28;20123;-61
2023/04/21 00:20:25;;;;;;;33.07;23.70;;;;;;;;;;5057317;28;20478;-60
2023/04/21 00:22:52;;;;;;;35.70;23.93;;;;;;;;;;5053345;28;20049;-61
2023/04/21 00:25:18;;;;;;;36.70;24.20;;;;;;;;;;5052637;28;20052;-60
2023/04/21 00:27:44;;;;;;;33.37;23.00;;;;;;;;;;5052165;28;20037;-61
2023/04/21 00:30:10;;;;;;;38.77;24.20;;;;;;;;;;5060233;28;20047;-60
2023/04/21 00:32:36;;;;;;;38.77;24.67;;;;;;;;;;5061106;28;20094;-60
2023/04/21 00:35:02;;;;;;;37.90;24.17;;;;;;;;;;5059033;28;20045;-60
2023/04/21 00:37:28;;;;;;;39.73;24.77;;;;;;;;;;5072392;28;20048;-62
2023/04/21 00:39:54;;;;;;;38.37;24.43;;;;;;;;;;5068629;28;20079;-60
2023/04/21 00:42:20;;;;;;;41.43;25.37;;;;;;;;;;5065743;28;20081;-60
2023/04/21 00:44:46;;;;;;;33.83;23.83;;;;;;;;;;5063639;28;20559;-60
2023/04/21 00:47:12;;;;;;;35.43;22.97;;;;;;;;;;5052823;28;20056;-60
2023/04/21 00:49:38;;;;;;;37.50;23.87;;;;;;;;;;5053434;28;20051;-60
2023/04/21 00:52:08;;;;;;;34.00;22.23;;;;;;;;;;5071924;28;20052;-60
2023/04/21 00:54:35;;;;;;;36.33;23.13;;;;;;;;;;5070091;28;20048;-60
2023/04/21 00:57:02;;;;;;;37.00;23.53;;;;;;;;;;5070651;28;20040;-60
2023/04/21 00:59:28;;;;;;;36.30;23.80;;;;;;;;;;5072098;28;20110;-60
2023/04/21 01:01:54;;;;;;;34.87;22.57;;;;;;;;;;5055150;28;20048;-60
2023/04/21 01:04:21;;;;;;;31.70;21.57;;;;;;;;;;5051676;28;20045;-60
2023/04/21 01:06:47;;;;;;;43.73;23.30;;;;;;;;;;5064521;28;20086;-61
2023/04/21 01:09:13;;;;;;;34.97;22.63;;;;;;;;;;5071752;28;20553;-60
2023/04/21 01:11:39;;;;;;;37.90;23.97;;;;;;;;;;5069999;28;20050;-60
2023/04/21 01:14:05;;;;;;;37.70;23.47;;;;;;;;;;5071188;28;20048;-60
2023/04/21 01:16:32;;;;;;;33.00;21.67;;;;;;;;;;5062944;28;20037;-60
2023/04/21 01:18:59;;;;;;;33.43;21.60;;;;;;;;;;5050757;28;20130;-60
2023/04/21 01:21:27;;;;;;;34.33;22.23;;;;;;;;;;5062411;28;20048;-60
2023/04/21 01:23:53;;;;;;;36.90;22.50;;;;;;;;;;5051633;28;20066;-60
2023/04/21 01:26:20;;;;;;;36.13;21.07;;;;;;;;;;5059130;28;20684;-60
2023/04/21 01:28:47;;;;;;;37.87;23.20;;;;;;;;;;5070066;28;20415;-60
2023/04/21 01:31:14;;;;;;;33.93;21.53;;;;;;;;;;5065046;28;20643;-60
2023/04/21 01:33:40;;;;;;;34.20;20.17;;;;;;;;;;5060511;28;20047;-60
2023/04/21 01:36:06;;;;;;;32.93;21.30;;;;;;;;;;5071177;28;20049;-61
2023/04/21 01:38:32;;;;;;;35.23;21.00;;;;;;;;;;5069784;28;20036;-60
2023/04/21 01:40:58;;;;;;;36.47;21.10;;;;;;;;;;5070159;28;20037;-60
2023/04/21 01:43:25;;;;;;;32.47;21.23;;;;;;;;;;5070915;28;20102;-61
2023/04/21 01:45:51;;;;;;;35.60;19.53;;;;;;;;;;5068382;28;20160;-60
2023/04/21 01:48:17;;;;;;;28.13;19.80;;;;;;;;;;5069476;28;20047;-61
2023/04/21 01:50:43;;;;;;;26.83;18.70;;;;;;;;;;5069452;28;20035;-61
2023/04/21 01:53:09;;;;;;;35.20;20.13;;;;;;;;;;5050964;28;20131;-60
2023/04/21 01:55:35;;;;;;;31.83;19.60;;;;;;;;;;5050488;28;20041;-60
2023/04/21 01:58:01;;;;;;;30.23;19.47;;;;;;;;;;5068200;28;20150;-60
2023/04/21 02:00:28;;;;;;;28.80;18.60;;;;;;;;;;5065961;28;20089;-60
2023/04/21 02:02:54;;;;;;;27.37;17.00;;;;;;;;;;5058705;28;20048;-60
2023/04/21 02:05:20;;;;;;;32.87;20.60;;;;;;;;;;5049722;28;20495;-60
2023/04/21 02:07:46;;;;;;;26.67;17.20;;;;;;;;;;5050775;28;20049;-60
2023/04/21 02:10:12;;;;;;;30.73;19.03;;;;;;;;;;5050258;28;20169;-60
2023/04/21 02:12:38;;;;;;;32.63;18.47;;;;;;;;;;5049310;28;20044;-60
2023/04/21 02:15:05;;;;;;;24.73;17.40;;;;;;;;;;5049968;28;20045;-60
2023/04/21 02:17:31;;;;;;;26.87;16.90;;;;;;;;;;5050654;28;20056;-60
2023/04/21 02:19:57;;;;;;;29.53;17.67;;;;;;;;;;5054155;28;20098;-60
2023/04/21 02:22:24;;;;;;;31.47;18.70;;;;;;;;;;5070443;28;20068;-60
2023/04/21 02:24:50;;;;;;;25.60;17.93;;;;;;;;;;5051249;28;20536;-60
2023/04/21 02:27:16;;;;;;;23.77;16.80;;;;;;;;;;5050467;28;20131;-60
2023/04/21 02:29:42;;;;;;;25.67;18.43;;;;;;;;;;5064364;28;20041;-60
2023/04/21 02:32:08;;;;;;;25.97;17.17;;;;;;;;;;5069546;28;20052;-60
2023/04/21 02:34:34;;;;;;;27.93;17.53;;;;;;;;;;5068954;28;20044;-61
2023/04/21 02:37:01;;;;;;;25.60;19.27;;;;;;;;;;5069496;28;20123;-60
2023/04/21 02:39:27;;;;;;;29.03;17.40;;;;;;;;;;5068573;28;20408;-60
2023/04/21 02:41:53;;;;;;;23.10;16.70;;;;;;;;;;5069733;28;20131;-61
2023/04/21 02:44:19;;;;;;;30.10;16.83;;;;;;;;;;5063328;28;20132;-60
2023/04/21 02:46:45;;;;;;;23.00;15.07;;;;;;;;;;5069331;28;20037;-61
2023/04/21 02:49:11;;;;;;;25.93;16.57;;;;;;;;;;5068743;28;20563;-60
2023/04/21 02:51:37;;;;;;;26.57;18.03;;;;;;;;;;5069577;28;20136;-60
2023/04/21 02:54:03;;;;;;;23.20;14.87;;;;;;;;;;5068650;28;20048;-61
2023/04/21 02:56:30;;;;;;;26.97;16.73;;;;;;;;;;5069520;28;20044;-60
2023/04/21 02:58:56;;;;;;;26.63;16.90;;;;;;;;;;5055287;28;20093;-61
2023/04/21 03:01:22;;;;;;;26.40;17.43;;;;;;;;;;5049507;28;20138;-61
2023/04/21 03:03:48;;;;;;;25.23;15.23;;;;;;;;;;5059446;28;20168;-60
2023/04/21 03:06:14;;;;;;;27.23;15.40;;;;;;;;;;5069255;28;20049;-61
2023/04/21 03:08:41;;;;;;;22.10;15.33;;;;;;;;;;5059294;28;20450;-60
2023/04/21 03:11:07;;;;;;;24.07;14.90;;;;;;;;;;5049676;28;20094;-60
2023/04/21 03:13:33;;;;;;;20.27;15.13;;;;;;;;;;5055009;28;20052;-60
2023/04/21 03:15:59;;;;;;;21.43;13.93;;;;;;;;;;5049749;28;20052;-60
2023/04/21 03:18:25;;;;;;;24.03;13.80;;;;;;;;;;5055528;28;20040;-60
2023/04/21 03:20:51;;;;;;;22.97;14.20;;;;;;;;;;5065780;28;20131;-60
2023/04/21 03:23:17;;;;;;;19.90;13.30;;;;;;;;;;5066262;28;20463;-60
2023/04/21 03:25:43;;;;;;;20.20;13.90;;;;;;;;;;5068813;28;20127;-60
2023/04/21 03:28:09;;;;;;;19.77;12.70;;;;;;;;;;5067487;28;20088;-60
2023/04/21 03:30:35;;;;;;;20.27;12.73;;;;;;;;;;5069369;28;20056;-60
2023/04/21 03:33:02;;;;;;;20.97;13.50;;;;;;;;;;5064128;28;20048;-61
2023/04/21 03:35:29;;;;;;;20.07;13.43;;;;;;;;;;5048576;28;20426;-61
2023/04/21 03:37:55;;;;;;;19.27;11.77;;;;;;;;;;5049417;28;20085;-61
2023/04/21 03:40:21;;;;;;;21.17;12.20;;;;;;;;;;5069048;28;20055;-60
2023/04/21 03:42:47;;;;;;;19.90;12.70;;;;;;;;;;5067945;28;20135;-60
2023/04/21 03:45:14;;;;;;;21.17;12.60;;;;;;;;;;5048766;28;20123;-61
2023/04/21 03:47:40;;;;;;;21.67;12.40;;;;;;;;;;5058142;28;20044;-60
2023/04/21 03:50:06;;;;;;;23.13;12.23;;;;;;;;;;5063401;28;20049;-61
2023/04/21 03:52:33;;;;;;;21.20;11.57;;;;;;;;;;5055523;28;20494;-60
2023/04/21 03:54:59;;;;;;;21.53;11.33;;;;;;;;;;5065469;28;20048;-61
2023/04/21 03:57:25;;;;;;;19.50;11.13;;;;;;;;;;5067484;28;20124;-60
2023/04/21 03:59:52;;;;;;;15.87;10.97;;;;;;;;;;5068104;28;20048;-61
2023/04/21 04:02:18;;;;;;;18.40;10.60;;;;;;;;;;5067497;28;20045;-61
2023/04/21 04:04:44;;;;;;;24.73;12.53;;;;;;;;;;5050531;28;20045;-61
2023/04/21 04:07:10;;;;;;;21.27;12.17;;;;;;;;;;5048456;28;20048;-60
2023/04/21 04:09:36;;;;;;;20.27;12.43;;;;;;;;;;5047976;28;20044;-60
2023/04/21 04:12:02;;;;;;;17.70;11.07;;;;;;;;;;5047900;28;20052;-61
2023/04/21 04:14:29;;;;;;;19.47;12.07;;;;;;;;;;5062044;28;20051;-60
2023/04/21 04:16:55;;;;;;;19.20;11.73;;;;;;;;;;5068413;28;20048;-60
2023/04/21 04:19:21;;;;;;;25.07;11.53;;;;;;;;;;5059657;28;20133;-60
2023/04/21 04:21:47;;;;;;;14.17;11.10;;;;;;;;;;5068226;28;20056;-60
2023/04/21 04:24:14;;;;;;;15.70;11.23;;;;;;;;;;5056662;28;20161;-60
2023/04/21 04:26:40;;;;;;;15.93;10.50;;;;;;;;;;5063603;28;20052;-60
2023/04/21 04:29:09;;;;;;;21.13;11.73;;;;;;;;;;5067198;28;20522;-61
2023/04/21 04:31:35;;;;;;;20.80;12.33;;;;;;;;;;5065895;28;20562;-60
2023/04/21 04:34:01;;;;;;;14.27;11.33;;;;;;;;;;5057156;28;20052;-60
2023/04/21 04:36:28;;;;;;;20.57;12.33;;;;;;;;;;5047147;28;20495;-60
2023/04/21 04:38:55;;;;;;;16.77;11.10;;;;;;;;;;5060134;28;20063;-61
2023/04/21 04:41:21;;;;;;;20.83;11.53;;;;;;;;;;5054501;28;20049;-60
2023/04/21 04:43:47;;;;;;;19.67;12.67;;;;;;;;;;5054501;28;20508;-61
2023/04/21 04:46:13;;;;;;;20.17;12.90;;;;;;;;;;5068111;28;20541;-60
2023/04/21 04:48:39;;;;;;;19.43;11.60;;;;;;;;;;5069788;28;20067;-60
2023/04/21 04:51:06;;;;;;;16.97;12.03;;;;;;;;;;5071507;28;20048;-60
2023/04/21 04:53:32;;;;;;;15.87;11.50;;;;;;;;;;5064761;28;20131;-60
2023/04/21 04:55:58;;;;;;;18.10;11.80;;;;;;;;;;5070067;28;20040;-60
2023/04/21 04:58:24;;;;;;;18.97;13.00;;;;;;;;;;5065037;28;20491;-60
2023/04/21 05:00:51;;;;;;;17.17;12.27;;;;;;;;;;5049718;28;20049;-60
2023/04/21 05:03:17;;;;;;;21.20;12.60;;;;;;;;;;5049180;28;20795;-60
2023/04/21 05:05:44;;;;;;;21.70;12.70;;;;;;;;;;5049680;28;20500;-60
2023/04/21 05:08:11;;;;;;;20.23;12.17;;;;;;;;;;5068278;28;20059;-60
2023/04/21 05:10:37;;;;;;;23.23;11.73;;;;;;;;;;5070129;28;20396;-60
2023/04/21 05:13:03;;;;;;;19.60;11.93;;;;;;;;;;5066854;28;20049;-60
2023/04/21 05:15:29;;;;;;;19.43;12.47;;;;;;;;;;5058935;28;20056;-60
2023/04/21 05:17:55;;;;;;;17.93;12.20;;;;;;;;;;5068598;28;20071;-61
2023/04/21 05:20:21;;;;;;;21.77;11.43;;;;;;;;;;5050912;28;20053;-60
2023/04/21 05:22:47;;;;;;;19.53;11.60;;;;;;;;;;5050335;28;20051;-60
2023/04/21 05:25:14;;;;;;;22.07;11.93;;;;;;;;;;5051255;28;20048;-60
2023/04/21 05:27:43;;;;;;;20.83;11.70;;;;;;;;;;5058026;28;20071;-61
2023/04/21 05:30:10;;;;;;;21.03;11.33;;;;;;;;;;5060231;28;20167;-60
2023/04/21 05:32:36;;;;;;;22.33;11.57;;;;;;;;;;5066422;28;20371;-60
2023/04/21 05:35:02;;;;;;;16.17;10.97;;;;;;;;;;5060669;28;20521;-60
2023/04/21 05:37:28;;;;;;;17.43;12.07;;;;;;;;;;5059431;28;20191;-61
2023/04/21 05:39:54;;;;;;;19.03;11.97;;;;;;;;;;5056652;28;20049;-60
2023/04/21 05:42:21;;;;;;;17.53;10.97;;;;;;;;;;5050781;28;20049;-61
2023/04/21 05:44:47;;;;;;;26.90;10.47;;;;;;;;;;5057455;28;20624;-60
2023/04/21 05:47:13;;;;;;;18.07;11.00;;;;;;;;;;5070788;28;20046;-60
2023/04/21 05:49:39;;;;;;;20.37;12.57;;;;;;;;;;5069882;28;20044;-60
2023/04/21 05:52:05;;;;;;;16.47;11.00;;;;;;;;;;5070726;28;20210;-60
2023/04/21 05:54:32;;;;;;;16.37;11.20;;;;;;;;;;5057995;28;20048;-59
2023/04/21 05:56:58;;;;;;;14.17;9.73;;;;;;;;;;5070637;28;20040;-61
2023/04/21 05:59:25;;;;;;;16.00;10.40;;;10.40;1.00;;;;;;5067226;28;20045;-60
2023/04/21 06:01:51;;;;;;;17.40;10.20;;;;;;;;;;5049427;28;20045;-61
2023/04/21 06:04:17;;;;;;;15.77;10.33;;;;;;;;;;5063131;28;20139;-60
2023/04/21 06:06:43;;;;;;;17.27;9.70;;;;;;;;;;5070604;28;20692;-60
2023/04/21 06:09:09;;;;;;;15.53;10.63;;;;;;;;;;5065160;28;20044;-61
2023/04/21 06:11:35;;;;;;;19.10;11.23;;;;;;;;;;5057712;28;20045;-61
2023/04/21 06:14:01;;;;;;;23.77;10.90;;;;;;;;;;5068687;28;20059;-61
2023/04/21 06:16:31;;;;;;;17.17;11.43;;;;;;;;;;5068550;28;20065;-61
2023/04/21 06:18:57;;;;;;;14.80;9.50;;;;;;;;;;5052755;28;20048;-60
2023/04/21 06:21:23;;;;;;;15.60;9.33;;;;;;;;;;5047369;28;20053;-61
2023/04/21 06:23:49;;;;;;;19.43;9.73;;;;;;;;;;5059651;28;20106;-61
2023/04/21 06:26:15;;;;;;;16.93;8.93;;;;;;;;;;5067811;28;20047;-61
2023/04/21 06:28:41;;;;;;;17.37;10.00;;;;;;;;;;5062441;28;20410;-61
2023/04/21 06:31:08;;;;;;;13.37;9.30;;;;;;;;;;5047145;28;20053;-61
2023/04/21 06:33:34;;;;;;;17.83;8.67;;;;;;;;;;5067562;28;20044;-61
2023/04/21 06:36:00;;;;;;;18.90;8.90;;;;;;;;;;5053371;28;20044;-61
2023/04/21 06:38:27;;;;;;;14.10;8.90;;;;;;;;;;5062702;28;20051;-60
2023/04/21 06:40:53;;;;;;;15.37;9.30;;;;;;;;;;5059069;28;20037;-61
2023/04/21 06:43:19;;;;;;;19.70;10.07;;;;;;;;;;5058702;28;20168;-61
2023/04/21 06:45:45;;;;;;;12.80;8.40;;;;;;;;;;5067516;28;20037;-61
2023/04/21 06:48:11;;;;;;;16.63;8.90;;;;;;;;;;5068549;28;20053;-61
2023/04/21 06:50:37;;;;;;;13.73;9.00;;;;;;;;;;5059005;28;20071;-61
2023/04/21 06:53:03;;;;;;;18.43;8.80;;;;;;;;;;5058690;28;20507;-60
2023/04/21 06:55:29;;;;;;;16.33;9.43;;;;;;;;;;5056632;28;20075;-60
2023/04/21 06:57:55;;;;;;;11.87;9.00;;;;;;;;;;5059075;28;20029;-60
2023/04/21 07:00:21;;;;;;;18.77;9.33;;;;;;;;;;5057991;28;20049;-60
2023/04/21 07:02:47;;;;;;;15.90;8.33;;;;;;;;;;5059158;28;20094;-61
2023/04/21 07:05:13;;;;;;;14.60;9.50;;;;;;;;;;5059080;28;20044;-59
2023/04/21 07:07:40;;;;;;;12.57;8.77;;;;;;;;;;5057355;28;20068;-59
2023/04/21 07:10:06;;;;;;;17.17;8.73;;;;;;;;;;5056778;28;20052;-60
2023/04/21 07:12:32;;;;;;;16.03;8.37;;;;;;;;;;5056367;28;20107;-60
2023/04/21 07:14:58;;;;;;;13.90;8.37;;;;;;;;;;5061062;28;20040;-60
2023/04/21 07:17:24;;;;;;;16.77;8.67;;;;;;;;;;5058442;28;20500;-60
2023/04/21 07:19:50;;;;;;;12.20;7.80;;;;;;;;;;5056113;28;20053;-60
2023/04/21 07:22:17;;;;;;;13.33;8.80;;;;;;;;;;5058165;28;20041;-60
2023/04/21 07:24:43;;;;;;;15.80;8.67;;;;;;;;;;5058805;28;20041;-60
2023/04/21 07:27:09;;;;;;;18.17;8.93;;;;;;;;;;5061962;28;20045;-60
2023/04/21 07:29:36;;;;;;;15.87;7.83;;;;;;;;;;5056132;28;20064;-60
2023/04/21 07:32:02;;;;;;;17.00;9.13;;;;;;;;;;5063110;28;20502;-60
2023/04/21 07:34:28;;;;;;;23.03;10.30;;;;;;;;;;5052960;28;20539;-60
2023/04/21 07:36:54;;;;;;;16.80;9.07;;;;;;;;;;5069109;28;20075;-60
2023/04/21 07:39:20;;;;;;;17.47;9.33;;;;;;;;;;5065471;28;20127;-60
2023/04/21 07:41:46;;;;;;;19.10;8.67;;;;;;;;;;5064131;28;20036;-60
2023/04/21 07:44:12;;;;;;;19.03;8.67;;;;;;;;;;5068528;28;20401;-60
2023/04/21 07:46:38;;;;;;;14.13;8.00;;;;;;;;;;5057913;28;20044;-60
2023/04/21 07:49:05;;;;;;;18.47;10.30;;;;;;;;;;5053876;28;20048;-60
2023/04/21 07:51:31;;;;;;;11.97;7.63;;;;;;;;;;5057735;28;20036;-60
2023/04/21 07:53:57;;;;;;;14.67;7.80;;;;;;;;;;5057016;28;20044;-61
2023/04/21 07:56:23;;;;;;;16.37;8.23;;;;;;;;;;5053584;28;20041;-60
2023/04/21 07:58:49;;;;;;;15.73;8.67;;;;;;;;;;5057154;28;20037;-60
2023/04/21 08:01:15;;;;;;;14.30;8.53;;;;;;;;;;5055728;28;20056;-60
2023/04/21 08:03:41;;;;;;;15.73;8.73;;;;;;;;;;5057070;28;20041;-60
2023/04/21 08:06:07;;;;;;;15.67;9.43;;;;;;;;;;5051872;28;20071;-60
2023/04/21 08:08:34;;;;;;;16.97;8.80;;;;;;;;;;5059215;28;20094;-60
2023/04/21 08:11:00;;;;;;;14.20;7.30;;;;;;;;;;5060648;28;20037;-60
2023/04/21 08:13:26;;;;;;;17.50;8.43;;;;;;;;;;5048004;28;20052;-60
2023/04/21 08:15:52;;;;;;;12.27;7.73;;;;;;;;;;5048491;28;20100;-60
2023/04/21 08:18:18;;;;;;;13.23;8.30;;;;;;;;;;5064523;28;20481;-60
2023/04/21 08:20:46;;;;;;;13.43;8.30;;;;;;;;;;5057653;28;20073;-60
2023/04/21 08:23:13;;;;;;;13.90;7.97;;;;;;;;;;5060820;28;20052;-60
2023/04/21 08:25:39;;;;;;;11.73;7.80;;;;;;;;;;5061408;28;20491;-60
2023/04/21 08:28:05;;;;;;;12.57;7.90;;;;;;;;;;5061424;28;20080;-60
2023/04/21 08:30:31;;;;;;;14.43;8.63;;;;;;;;;;5060469;28;20715;-60
2023/04/21 08:32:57;;;;;;;11.37;7.90;;;;;;;;;;5062351;28;20494;-60
2023/04/21 08:35:23;;;;;;;11.47;7.40;;;;;;;;;;5061088;28;20124;-60
2023/04/21 08:37:49;;;;;;;14.37;7.77;;;;;;;;;;5059433;28;20033;-60
2023/04/21 08:40:16;;;;;;;16.03;8.47;;;;;;;;;;5052005;28;20075;-60
2023/04/21 08:42:42;;;;;;;14.30;7.47;;;;;;;;;;5051370;28;20056;-60
2023/04/21 08:45:08;;;;;;;16.20;8.27;;;;;;;;;;5051763;28;20053;-60
2023/04/21 08:47:36;;;;;;;16.03;8.47;;;;;;;;;;5051579;28;20534;-60
2023/04/21 08:50:03;;;;;;;12.23;7.97;;;;;;;;;;5051686;28;20124;-60
2023/04/21 08:52:29;;;;;;;12.63;7.97;;;;;;;;;;5050764;28;20037;-59
2023/04/21 08:54:56;;;;;;;12.17;6.80;;;;;;;;;;5051309;28;20052;-60
2023/04/21 08:57:22;;;;;;;13.47;7.57;;;;;;;;;;5051474;28;20053;-60
2023/04/21 08:59:48;;;;;;;13.87;7.67;;;;;;;;;;5051618;28;20052;-60
2023/04/21 09:02:19;;;;;;;15.13;7.87;;;;;;;;;;5051944;28;20090;-60
2023/04/21 09:04:46;;;;;;;16.77;8.53;;;;;;;;;;5051091;28;20037;-60
2023/04/21 09:07:29;;;;;;;13.13;7.70;;;;;;;;;;5051536;28;20074;-60
2023/04/21 09:09:56;;;;;;;12.38;8.40;;;;;;;;;;5051442;28;20461;-60
2023/04/21 09:12:22;;;;;;;15.27;7.97;;;;;;;;;;5057160;28;20399;-60
2023/04/21 09:14:48;;;;;;;18.57;7.63;;;;;;;;;;5060460;28;20037;-60
2023/04/21 09:17:15;;;;;;;16.30;8.60;;;;;;;;;;5058427;28;20041;-60
2023/04/21 09:19:42;;;;;;;18.50;8.17;;;;;;;;;;5058195;28;20495;-60
2023/04/21 09:22:08;;;;;;;14.20;8.33;;;;;;;;;;5059517;28;20051;-61
2023/04/21 09:24:34;;;;;;;16.50;8.17;;;;;;;;;;5060578;28;20094;-60
2023/04/21 09:27:02;;;;;;;16.63;8.47;;;;;;;;;;5058637;28;20044;-60
2023/04/21 09:29:29;;;;;;;14.07;8.77;;;;;;;;;;5050657;28;20128;-60
2023/04/21 09:31:55;;;;;;;12.13;8.57;;;;;;;;;;5054088;28;20041;-60
2023/04/21 09:34:26;;;;;;;14.87;9.13;;;;;;;;;;5057616;28;20080;-60
2023/04/21 09:37:04;;;;;;;18.10;9.27;;;;;;;;;;5058816;28;20052;-60
2023/04/21 09:39:31;;;;;;;12.23;8.37;;;;;;;;;;5058611;28;20856;-60
2023/04/21 09:41:57;;;;;;;14.93;9.20;;;;;;;;;;5058391;28;20095;-60
2023/04/21 09:44:26;;;;;;;15.33;8.93;;;;;;;;;;5057447;28;20532;-60
2023/04/21 09:46:58;;;;;;;20.40;8.37;;;;;;;;;;5053643;28;20049;-60
2023/04/21 09:49:26;;;;;;;14.97;9.47;;;;;;;;;;5058663;28;20124;-60
2023/04/21 09:51:52;;;;;;;12.80;8.30;;;;;;;;;;5058273;28;20065;-60
2023/04/21 09:54:19;;;;;;;13.63;9.17;;;;;;;;;;5059822;28;20053;-60
2023/04/21 09:56:48;;;;;;;14.77;8.40;;;;;;;;;;5048965;28;20056;-60
2023/04/21 09:59:19;;;;;;;12.90;8.87;;;;;;;;;;5049492;28;20049;-60
2023/04/21 10:01:46;;;;;;;15.60;9.87;;;;;;;;;;5049129;28;20687;-60
2023/04/21 10:04:12;;;;;;;13.70;10.00;;;;;;;;;;5049620;28;20041;-60
2023/04/21 10:06:38;;;;;;;13.97;8.67;;;;;;;;;;5049704;28;20053;-60
2023/04/21 10:09:05;;;;;;;16.03;10.50;;;;;;;;;;5050464;28;20037;-60
2023/04/21 10:11:33;;;;;;;15.40;9.33;;;;;;;;;;5057922;28;20511;-60
2023/04/21 10:13:59;;;;;;;16.60;10.27;;;;;;;;;;5049787;28;20049;-60
2023/04/21 10:16:25;;;;;;;16.63;10.10;;;;;;;;;;5050305;28;20040;-60
2023/04/21 10:18:52;;;;;;;17.60;9.47;;;;;;;;;;5050214;28;20041;-60
2023/04/21 10:21:20;;;;;;;14.33;9.17;;;;;;;;;;5050039;28;20045;-60
2023/04/21 10:23:52;;;;;;;17.43;10.00;;;;;;;;;;5059068;28;20044;-60
2023/04/21 10:26:25;;;;;;;14.47;10.20;;;;;;;;;;5068207;28;20052;-60
2023/04/21 10:28:53;;;;;;;14.23;9.80;;;;;;;;;;5058710;28;20457;-60
2023/04/21 10:31:30;;;;;;;20.27;10.10;;;;;;;;;;5055241;28;20139;-60
2023/04/21 10:34:08;;;;;;;20.00;11.03;;;;;;;;;;5069810;28;20084;-60
2023/04/21 10:36:34;;;;;;;14.13;9.53;;;;;;;;;;5069828;28;20044;-61
2023/04/21 10:39:02;;;;;;;20.23;10.17;;;;;;;;;;5069487;28;20151;-61
2023/04/21 10:41:32;;;;;;;14.63;9.83;;;;;;;;;;5052803;28;20052;-60
2023/04/21 10:44:11;;;;;;;13.27;9.67;;;;;;;;;;5049915;28;20037;-60
2023/04/21 10:46:38;;;;;;;14.13;9.33;;;;;;;;;;5068583;28;20052;-61
2023/04/21 10:49:30;;;;;;;14.60;9.53;;;;;;;;;;5069659;28;20045;-61
2023/04/21 10:52:02;;;;;;;14.40;10.17;;;;;;;;;;5068425;28;20053;-60
2023/04/21 10:54:40;;;;;;;14.60;9.10;;;;;;;;;;5067238;28;20055;-60
2023/04/21 10:57:07;;;;;;;16.60;10.57;;;;;;;;;;5058096;28;20098;-61
2023/04/21 10:59:34;;;;;;;16.30;10.53;;;;;;;;;;5069258;28;20056;-60
2023/04/21 11:02:01;;;;;;;16.73;10.70;;;;;;;;;;5051038;28;20060;-61
2023/04/21 11:04:27;;;;;;;18.90;9.87;;;;;;;;;;5056060;28;20188;-61
2023/04/21 11:07:08;;;;;;;13.87;10.03;;;;;;;;;;5048984;28;20044;-61
2023/04/21 11:09:35;;;;;;;14.43;9.70;;;;;;;;;;5053586;28;20120;-61
2023/04/21 11:12:03;;;;;;;18.20;9.70;;;;;;;;;;5061023;28;20047;-61
2023/04/21 11:14:29;;;;;;;16.10;9.93;;;;;;;;;;5060557;28;20095;-60
2023/04/21 11:16:55;;;;;;;19.07;9.57;;;;;;;;;;5048946;28;20052;-61
2023/04/21 11:19:24;;;;;;;15.53;9.73;;;;;;;;;;5052666;28;20128;-61
2023/04/21 11:21:53;;;;;;;13.90;9.90;;;;;;;;;;5065015;28;20040;-61
2023/04/21 11:24:20;;;;;;;12.87;9.60;;;;;;;;;;5066643;28;20127;-61
2023/04/21 11:26:46;;;;;;;19.33;9.67;;;;;;;;;;5048702;28;20045;-60
2023/04/21 11:29:13;;;;;;;15.13;9.50;;;;;;;;;;5046727;28;20063;-61
2023/04/21 11:31:40;;;;;;;13.73;9.53;;;;;;;;;;5047270;28;20049;-60
2023/04/21 11:34:07;;;;;;;17.07;10.07;;;;;;;;;;5047509;28;20139;-61
2023/04/21 11:36:34;;;;;;;16.37;10.10;;;;;;;;;;5047373;28;20182;-61
2023/04/21 11:39:06;;;;;;;15.13;9.73;;;;;;;;;;5048743;28;20408;-61
2023/04/21 11:41:33;;;;;;;15.38;10.27;;;;;;;;;;5047900;28;20391;-61
2023/04/21 11:43:59;;;;;;;15.73;10.43;;;;;;;;;;5052623;28;20051;-61
2023/04/21 11:46:26;;;;;;;16.73;10.00;;;;;;;;;;5055306;28;20130;-61
2023/04/21 11:49:05;;;;;;;14.70;10.00;;;;;;;;;;5057045;28;20083;-61
2023/04/21 11:51:35;;;;;;;19.47;10.13;;;;;;;;;;5057152;28;20045;-61
2023/04/21 11:54:01;;;;;;;15.97;10.47;;;;;;;;;;5054121;28;20155;-60
2023/04/21 11:56:27;;;;;;;18.33;10.63;;;;;;;;;;5055858;28;20037;-61
2023/04/21 11:58:54;;;;;;;17.33;12.30;;;;;;;;;;5059350;28;20051;-61
2023/04/21 12:01:21;;;;;;;19.47;11.17;;;;;;;;;;5057032;28;20083;-61
2023/04/21 12:03:53;;;;;;;15.47;11.43;;;;;;;;;;5058136;28;20044;-60
2023/04/21 12:06:22;;;;;;;16.45;11.25;;;;;;;;;;5058072;28;20380;-61
2023/04/21 12:08:49;;;;;;;15.97;12.20;;;;;;;;;;5056195;28;20037;-61
2023/04/21 12:11:18;;;;;;;17.57;12.03;;;;;;;;;;5059310;28;20037;-60
2023/04/21 12:13:44;;;;;;;18.33;12.67;;;;;;;;;;5055573;28;20089;-61
2023/04/21 12:16:12;;;;;;;19.77;12.80;;;;;;;;;;5056549;28;20040;-61
2023/04/21 12:18:38;;;;;;;12.33;10.47;;;;;;;;;;5053636;28;20044;-61
2023/04/21 12:21:04;;;;;;;17.70;11.33;;;;;;;;;;5057744;28;20035;-61
2023/04/21 12:23:30;;;;;;;16.07;11.90;;;;;;;;;;5055738;28;20044;-61
2023/04/21 12:25:57;;;;;;;12.70;10.87;;;;;;;;;;5056342;28;20063;-61
2023/04/21 12:28:23;;;;;;;14.60;11.67;;;;;;;;;;5058630;28;20072;-61
2023/04/21 12:30:49;;;;;;;15.13;10.77;;;;;;;;;;5056562;28;20037;-61
2023/04/21 12:33:15;;;;;;;17.43;10.80;;;;;;;;;;5057583;28;20045;-61
2023/04/21 12:35:41;;;;;;;16.70;11.20;;;;;;;;;;5055338;28;20106;-61
2023/04/21 12:38:07;;;;;;;14.03;10.63;;;;;;;;;;5057765;28;20521;-61
2023/04/21 12:40:33;;;;;;;14.53;10.20;;;;;;;;;;5057709;28;20071;-61
2023/04/21 12:42:59;;;;;;;13.20;10.30;;;;;;;;;;5060728;28;20056;-61
2023/04/21 12:45:25;;;;;;;14.17;8.43;;;;;;;;;;5056542;28;20136;-61
2023/04/21 12:47:51;;;;;;;11.10;8.33;;;;;;;;;;5053063;28;20037;-61
2023/04/21 12:50:18;;;;;;;15.83;8.93;;;;;;;;;;5058334;28;20049;-61
2023/04/21 12:52:44;;;;;;;10.83;7.70;;;;;;;;;;5055466;28;20082;-61
2023/04/21 12:55:12;;;;;;;12.53;7.50;;;;;;;;;;5052608;28;20053;-61
2023/04/21 12:57:38;;;;;;;12.67;7.03;;;;;;;;;;5050158;28;20464;-60
2023/04/21 13:00:05;;;;;;;11.03;8.47;;;;;;;;;;5056775;28;20087;-60
2023/04/21 13:02:35;;;;;;;16.63;8.10;;;;;;;;;;5062821;28;20056;-61
2023/04/21 13:05:03;;;;;;;10.83;8.07;;;;;;;;;;5058180;28;20077;-60
2023/04/21 13:07:30;;;;;;;13.80;7.73;;;;;;;;;;5051197;28;20041;-60
2023/04/21 13:09:56;;;;;;;13.03;8.03;;;;;;;;;;5065141;28;20040;-60
2023/04/21 13:12:22;;;;;;;11.00;8.50;;;;;;;;;;5054717;28;20095;-60
2023/04/21 13:14:49;;;;;;;11.90;8.23;;;;;;;;;;5052653;28;20041;-60
2023/04/21 13:17:15;;;;;;;14.43;8.23;;;;;;;;;;5067355;28;20510;-60
2023/04/21 13:19:41;;;;;;;16.37;8.50;;;;;;;;;;5060089;28;20804;-60
2023/04/21 13:22:07;;;;;;;12.30;8.83;;;;;;;;;;5052336;28;20040;-60
2023/04/21 13:24:34;;;;;;;10.03;8.57;;;;;;;;;;5053711;28;20033;-60
2023/04/21 13:27:00;;;;;;;15.37;9.03;;;;;;;;;;5067206;28;20512;-60
2023/04/21 13:29:28;;;;;;;14.33;8.40;;;;;;;;;;5066434;28;20045;-60
2023/04/21 13:31:55;;;;;;;13.60;9.30;;;;;;;;;;5051768;28;20461;-60
2023/04/21 13:34:22;;;;;;;11.60;9.10;;;;;;;;;;5062305;28;20044;-60
2023/04/21 13:36:48;;;;;;;12.87;8.07;;;;;;;;;;5057164;28;20028;-60
2023/04/21 13:39:14;;;;;;;12.57;8.63;;;;;;;;;;5056146;28;20049;-60
2023/04/21 13:41:40;;;;;;;11.37;8.73;;;;;;;;;;5056067;28;20170;-60
2023/04/21 13:44:07;;;;;;;15.67;8.13;;;;;;;;;;5058928;28;20135;-60
2023/04/21 13:46:33;;;;;;;13.80;8.83;;;;;;;;;;5060552;28;20388;-60
2023/04/21 13:48:59;;;;;;;12.13;7.53;;;;;;;;;;5058350;28;20048;-60
2023/04/21 13:51:25;;;;;;;11.70;6.13;;;;;;;;;;5055622;28;20044;-60
2023/04/21 13:53:51;;;;;;;11.03;6.00;;;;;;;;;;5060823;28;20513;-60
2023/04/21 13:56:17;;;;;;;12.20;5.70;;;;;;;;;;5058623;28;20095;-60
2023/04/21 13:58:43;;;;;;;12.00;4.60;;;;;;;;;;5057464;28;20063;-60
2023/04/21 14:01:09;;;;;;;10.37;5.03;;;;;;;;;;5059543;28;20094;-61
2023/04/21 14:03:36;;;;;;;8.73;4.20;;;;;;;;;;5060663;28;20059;-60
2023/04/21 14:06:02;;;;;;;9.57;4.77;;;;;;;;;;5061427;28;20079;-60
2023/04/21 14:08:28;;;;;;;18.37;4.80;;;;;;;;;;5060214;28;20040;-60
2023/04/21 14:10:54;;;;;;;8.33;4.30;;;;;;;;;;5060843;28;20048;-60
2023/04/21 14:13:20;;;;;;;9.90;4.57;;;;;;;;;;5059651;28;20047;-60
2023/04/21 14:15:46;;;;;;;8.00;4.27;;;;;;;;;;5055116;28;20048;-60
2023/04/21 14:18:12;;;;;;;10.80;4.43;;;;;;;;;;5062732;28;20048;-60
2023/04/21 14:20:38;;;;;;;11.93;4.17;;;;;;;;;;5056260;28;20057;-61